createdAt,value
2017-12-05T00:02:27.138Z,92.60
2017-12-05T00:04:54.650Z,92.50
2017-12-05T00:07:22.141Z,92.60
2017-12-05T00:09:49.653Z,92.60
2017-12-05T00:12:17.149Z,92.40
2017-12-05T00:14:44.659Z,92.60
2017-12-05T00:17:12.926Z,92.50
2017-12-05T00:19:41.201Z,92.60
2017-12-05T00:22:09.462Z,92.40
2017-12-05T00:24:36.983Z,92.40
2017-12-05T00:27:04.473Z,92.50
2017-12-05T00:29:31.971Z,92.50
2017-12-05T00:31:59.485Z,92.50
2017-12-05T00:34:26.973Z,92.60
2017-12-05T00:36:55.251Z,92.40
2017-12-05T00:39:23.514Z,92.50
2017-12-05T00:41:51.025Z,92.50
2017-12-05T00:44:18.521Z,92.40
2017-12-05T00:46:46.033Z,92.30
2017-12-05T00:49:13.523Z,92.40
2017-12-05T00:51:41.033Z,92.40
2017-12-05T00:54:08.526Z,92.40
2017-12-05T00:56:36.042Z,92.40
2017-12-05T00:59:04.305Z,92.30
2017-12-05T01:01:31.826Z,92.30
2017-12-05T01:03:59.324Z,92.30
2017-12-05T01:06:27.581Z,92.30
2017-12-05T01:08:55.095Z,92.30
2017-12-05T01:11:22.589Z,92.20
2017-12-05T01:13:50.101Z,92.30
2017-12-05T01:16:17.593Z,92.20
2017-12-05T01:18:45.109Z,92.20
2017-12-05T01:21:12.598Z,92.30
2017-12-05T01:23:40.110Z,92.20
2017-12-05T01:26:08.365Z,92.50
2017-12-05T01:28:35.878Z,92.60
2017-12-05T01:31:03.366Z,92.30
2017-12-05T01:33:30.878Z,92.30
2017-12-05T01:35:58.369Z,92.00
2017-12-05T01:38:25.857Z,91.70
2017-12-05T01:40:53.365Z,91.20
2017-12-05T01:43:20.854Z,91.40
2017-12-05T01:45:48.367Z,91.50
2017-12-05T01:48:15.865Z,91.50
2017-12-05T01:50:43.386Z,91.50
2017-12-05T01:53:10.878Z,91.50
2017-12-05T01:55:38.395Z,91.70
2017-12-05T01:58:05.893Z,91.80
2017-12-05T02:00:33.406Z,91.90
2017-12-05T02:03:01.662Z,91.90
2017-12-05T02:05:29.149Z,91.90
2017-12-05T02:07:56.662Z,91.80
2017-12-05T02:10:24.154Z,91.80
2017-12-05T02:12:52.443Z,91.70
2017-12-05T02:15:19.934Z,91.70
2017-12-05T02:17:47.447Z,91.80
2017-12-05T02:20:15.706Z,91.90
2017-12-05T02:22:43.225Z,91.90
2017-12-05T02:25:10.716Z,92.10
2017-12-05T02:27:38.237Z,91.80
2017-12-05T02:30:05.730Z,91.70
2017-12-05T02:32:33.242Z,91.80
2017-12-05T02:35:00.733Z,91.80
2017-12-05T02:37:28.229Z,91.70
2017-12-05T02:39:56.506Z,91.60
2017-12-05T02:42:24.757Z,91.60
2017-12-05T02:44:52.273Z,91.60
2017-12-05T02:47:19.766Z,91.60
2017-12-05T02:49:47.277Z,91.80
2017-12-05T02:52:14.785Z,91.90
2017-12-05T02:54:42.293Z,91.90
2017-12-05T02:57:09.787Z,91.90
2017-12-05T02:59:37.301Z,91.90
2017-12-05T03:02:04.794Z,91.80
2017-12-05T03:04:32.318Z,92.00
2017-12-05T03:06:59.810Z,91.90
2017-12-05T03:09:27.301Z,92.00
2017-12-05T03:11:55.602Z,92.00
2017-12-05T03:14:23.858Z,92.00
2017-12-05T03:16:51.373Z,92.00
2017-12-05T03:19:18.862Z,92.20
2017-12-05T03:21:46.378Z,92.20
2017-12-05T03:24:13.876Z,92.20
2017-12-05T03:26:41.394Z,92.10
2017-12-05T03:29:08.887Z,92.10
2017-12-05T03:31:36.402Z,92.00
2017-12-05T03:34:03.894Z,92.00
2017-12-05T03:36:31.387Z,91.90
2017-12-05T03:38:58.898Z,91.80
2017-12-05T03:41:26.386Z,91.80
2017-12-05T03:43:53.958Z,91.90
2017-12-05T03:46:21.410Z,91.90
2017-12-05T03:48:48.921Z,92.00
2017-12-05T03:51:16.413Z,91.90
2017-12-05T03:53:43.926Z,91.90
2017-12-05T03:56:11.418Z,91.80
2017-12-05T03:58:38.947Z,91.90
2017-12-05T04:01:06.450Z,91.90
2017-12-05T04:03:33.955Z,91.90
2017-12-05T04:06:01.478Z,91.90
2017-12-05T04:08:29.747Z,91.90
2017-12-05T04:10:57.266Z,91.90
2017-12-05T04:13:24.767Z,91.80
2017-12-05T04:15:52.287Z,91.80
2017-12-05T04:18:19.790Z,91.80
2017-12-05T04:20:47.310Z,91.80
2017-12-05T04:23:14.811Z,91.70
2017-12-05T04:25:42.339Z,91.80
2017-12-05T04:28:09.838Z,92.00
2017-12-05T04:30:38.102Z,91.70
2017-12-05T04:33:05.622Z,91.70
2017-12-05T04:35:33.120Z,91.70
2017-12-05T04:38:00.642Z,91.70
2017-12-05T04:40:28.139Z,91.80
2017-12-05T04:42:55.659Z,91.90
2017-12-05T04:45:23.168Z,92.10
2017-12-05T04:47:51.454Z,91.90
2017-12-05T04:50:18.955Z,91.80
2017-12-05T04:52:46.487Z,92.00
2017-12-05T04:55:13.987Z,91.90
2017-12-05T04:57:41.495Z,92.10
2017-12-05T05:00:09.027Z,92.20
2017-12-05T05:02:36.528Z,92.60
2017-12-05T05:05:04.050Z,92.40
2017-12-05T05:07:32.319Z,92.50
2017-12-05T05:10:00.612Z,92.40
2017-12-05T05:12:28.879Z,92.70
2017-12-05T05:14:57.207Z,92.60
2017-12-05T05:17:24.694Z,92.60
2017-12-05T05:19:52.267Z,92.70
2017-12-05T05:22:19.743Z,92.90
2017-12-05T05:24:48.006Z,92.80
2017-12-05T05:27:16.291Z,92.80
2017-12-05T05:29:44.558Z,92.80
2017-12-05T05:32:12.847Z,92.90
2017-12-05T05:34:40.343Z,92.90
2017-12-05T05:37:07.867Z,93.00
2017-12-05T05:39:36.131Z,93.00
2017-12-05T05:42:04.418Z,93.00
2017-12-05T05:44:31.923Z,92.90
2017-12-05T05:46:59.449Z,92.90
2017-12-05T05:49:26.955Z,93.00
2017-12-05T05:51:54.479Z,93.20
2017-12-05T05:54:21.975Z,93.00
2017-12-05T05:56:49.477Z,93.00
2017-12-05T05:59:16.998Z,93.00
2017-12-05T06:01:44.498Z,93.10
2017-12-05T06:04:12.021Z,93.20
2017-12-05T06:06:39.522Z,93.10
2017-12-05T06:09:07.043Z,93.10
2017-12-05T06:11:34.542Z,93.00
2017-12-05T06:14:02.062Z,93.10
2017-12-05T06:16:30.328Z,93.00
2017-12-05T06:18:57.855Z,93.00
2017-12-05T06:21:25.355Z,93.00
2017-12-05T06:23:53.642Z,93.10
2017-12-05T06:26:21.907Z,93.10
2017-12-05T06:28:50.198Z,93.20
2017-12-05T06:31:18.467Z,93.10
2017-12-05T06:33:46.735Z,93.00
2017-12-05T06:36:15.023Z,92.90
2017-12-05T06:38:43.289Z,92.90
2017-12-05T06:41:11.583Z,92.80
2017-12-05T06:43:39.847Z,92.80
2017-12-05T06:46:08.135Z,92.80
2017-12-05T06:48:36.399Z,92.70
2017-12-05T06:51:04.686Z,92.70
2017-12-05T06:53:32.947Z,92.70
2017-12-05T06:56:01.240Z,92.60
2017-12-05T06:58:29.507Z,92.60
2017-12-05T07:00:57.779Z,92.60
2017-12-05T07:03:26.070Z,92.70
2017-12-05T07:05:54.335Z,92.60
2017-12-05T07:08:22.638Z,92.90
2017-12-05T07:10:50.153Z,92.90
2017-12-05T07:13:17.689Z,93.20
2017-12-05T07:15:45.191Z,92.80
2017-12-05T07:18:13.494Z,92.40
2017-12-05T07:20:41.003Z,92.40
2017-12-05T07:23:08.511Z,92.10
2017-12-05T07:25:36.354Z,92.00
2017-12-05T07:28:03.888Z,91.80
2017-12-05T07:30:31.427Z,91.80
2017-12-05T07:32:58.939Z,91.70
2017-12-05T07:35:26.467Z,91.40
2017-12-05T07:37:53.968Z,91.60
2017-12-05T07:40:21.496Z,91.60
2017-12-05T07:42:49.766Z,91.20
2017-12-05T07:45:17.268Z,91.20
2017-12-05T07:47:44.790Z,90.90
2017-12-05T07:50:13.055Z,91.20
2017-12-05T07:52:40.582Z,90.90
2017-12-05T07:55:08.082Z,90.80
2017-12-05T07:57:36.374Z,90.80
2017-12-05T08:00:04.678Z,90.90
2017-12-05T08:02:32.203Z,90.90
2017-12-05T08:05:00.475Z,90.90
2017-12-05T08:07:28.762Z,90.90
2017-12-05T08:09:57.018Z,90.90
2017-12-05T08:12:24.543Z,90.80
2017-12-05T08:14:52.038Z,90.90
2017-12-05T08:17:20.307Z,91.00
2017-12-05T08:19:47.830Z,91.00
2017-12-05T08:22:15.327Z,90.90
2017-12-05T08:24:43.783Z,90.60
2017-12-05T08:27:11.283Z,90.80
2017-12-05T08:29:39.568Z,90.60
2017-12-05T08:32:07.092Z,90.60
2017-12-05T08:34:34.615Z,90.60
2017-12-05T08:37:02.111Z,90.50
2017-12-05T08:39:29.642Z,90.60
2017-12-05T08:41:57.144Z,90.60
2017-12-05T08:44:25.435Z,90.30
2017-12-05T08:46:53.698Z,90.90
2017-12-05T08:49:21.987Z,91.10
2017-12-05T08:51:50.251Z,91.00
2017-12-05T08:54:18.563Z,90.80
2017-12-05T08:56:46.059Z,90.80
2017-12-05T08:59:13.560Z,90.50
2017-12-05T09:01:41.103Z,90.10
2017-12-05T09:04:09.374Z,89.70
2017-12-05T09:06:37.662Z,89.50
2017-12-05T09:09:05.187Z,89.40
2017-12-05T09:11:32.707Z,90.10
2017-12-05T09:14:00.206Z,89.90
2017-12-05T09:16:27.726Z,89.50
2017-12-05T09:18:55.228Z,89.90
2017-12-05T09:21:22.750Z,90.00
2017-12-05T09:23:50.252Z,90.00
2017-12-05T09:26:17.751Z,90.00
2017-12-05T09:28:45.271Z,89.10
2017-12-05T09:31:12.771Z,89.90
2017-12-05T09:33:40.297Z,90.00
2017-12-05T09:36:08.567Z,90.00
2017-12-05T09:38:36.087Z,90.00
2017-12-05T09:41:03.587Z,90.30
2017-12-05T09:43:31.878Z,90.00
2017-12-05T09:46:00.142Z,89.70
2017-12-05T09:48:28.436Z,89.50
2017-12-05T09:50:55.942Z,89.50
2017-12-05T09:53:23.443Z,90.00
2017-12-05T09:55:51.726Z,89.70
2017-12-05T09:58:19.998Z,89.50
2017-12-05T10:00:47.590Z,89.50
2017-12-05T10:03:15.815Z,88.90
2017-12-05T10:05:43.334Z,88.80
2017-12-05T10:08:10.835Z,88.50
2017-12-05T10:10:38.359Z,88.30
2017-12-05T10:13:05.859Z,88.10
2017-12-05T10:15:34.146Z,87.60
2017-12-05T10:18:02.415Z,87.40
2017-12-05T10:20:30.704Z,86.50
2017-12-05T10:22:58.207Z,86.50
2017-12-05T10:25:25.715Z,85.50
2017-12-05T10:27:54.003Z,85.40
2017-12-05T10:30:21.502Z,85.40
2017-12-05T10:32:49.023Z,85.60
2017-12-05T10:35:16.522Z,84.90
2017-12-05T10:37:44.047Z,84.30
2017-12-05T10:40:11.543Z,84.30
2017-12-05T10:42:39.067Z,83.00
2017-12-05T10:45:06.567Z,80.20
2017-12-05T10:47:34.094Z,78.50
2017-12-05T10:50:01.595Z,76.30
2017-12-05T10:52:29.891Z,73.70
2017-12-05T10:54:58.155Z,70.60
2017-12-05T10:57:26.418Z,67.80
2017-12-05T10:59:53.941Z,67.80
2017-12-05T11:02:21.439Z,66.60
2017-12-05T11:04:48.959Z,64.30
2017-12-05T11:07:16.460Z,63.60
2017-12-05T11:09:43.982Z,64.40
2017-12-05T11:12:11.474Z,65.00
2017-12-05T11:14:39.759Z,65.40
2017-12-05T11:17:07.255Z,65.40
2017-12-05T11:19:34.779Z,66.20
2017-12-05T11:22:03.039Z,67.70
2017-12-05T11:24:30.555Z,67.60
2017-12-05T11:26:58.049Z,68.30
2017-12-05T11:29:25.552Z,69.70
2017-12-05T11:31:53.079Z,70.50
2017-12-05T11:34:21.352Z,71.70
2017-12-05T11:36:48.867Z,71.70
2017-12-05T11:39:16.367Z,72.70
2017-12-05T11:41:43.892Z,73.40
2017-12-05T11:44:11.387Z,72.80
2017-12-05T11:46:38.906Z,73.70
2017-12-05T11:49:06.406Z,73.70
2017-12-05T11:51:33.930Z,74.40
2017-12-05T11:54:01.427Z,74.70
2017-12-05T11:56:29.711Z,75.00
2017-12-05T11:58:57.971Z,76.60
2017-12-05T12:01:25.471Z,75.80
2017-12-05T12:03:52.990Z,76.40
2017-12-05T12:06:21.267Z,77.20
2017-12-05T12:08:48.790Z,77.10
2017-12-05T12:11:16.292Z,77.50
2017-12-05T12:13:44.587Z,78.20
2017-12-05T12:16:12.086Z,78.20
2017-12-05T12:18:39.606Z,78.60
2017-12-05T12:21:07.103Z,78.70
2017-12-05T12:23:34.630Z,78.60
2017-12-05T12:26:02.127Z,79.00
2017-12-05T12:28:29.627Z,79.40
2017-12-05T12:30:57.915Z,80.10
2017-12-05T12:33:25.415Z,80.10
2017-12-05T12:35:52.944Z,80.00
2017-12-05T12:38:20.455Z,79.80
2017-12-05T12:40:47.984Z,79.90
2017-12-05T12:43:15.484Z,80.60
2017-12-05T12:45:43.002Z,80.70
2017-12-05T12:48:10.509Z,81.20
2017-12-05T12:50:38.768Z,81.20
2017-12-05T12:53:06.286Z,81.20
2017-12-05T12:55:33.787Z,81.70
2017-12-05T12:58:01.316Z,81.10
2017-12-05T13:00:28.815Z,81.40
2017-12-05T13:02:57.103Z,81.50
2017-12-05T13:05:25.371Z,81.90
2017-12-05T13:07:53.659Z,82.10
2017-12-05T13:10:21.923Z,82.40
2017-12-05T13:12:50.206Z,82.40
2017-12-05T13:15:18.471Z,82.70
2017-12-05T13:17:46.735Z,82.70
2017-12-05T13:20:14.255Z,82.60
2017-12-05T13:22:41.755Z,82.60
2017-12-05T13:25:09.279Z,82.90
2017-12-05T13:27:36.775Z,83.00
2017-12-05T13:30:04.295Z,83.20
2017-12-05T13:32:31.797Z,83.30
2017-12-05T13:35:00.098Z,84.20
2017-12-05T13:37:27.599Z,84.20
2017-12-05T13:39:55.128Z,84.40
2017-12-05T13:42:22.627Z,84.30
2017-12-05T13:44:50.122Z,84.50
2017-12-05T13:47:17.654Z,85.30
2017-12-05T13:49:45.150Z,85.60
2017-12-05T13:52:12.679Z,85.50
2017-12-05T13:54:40.178Z,85.40
2017-12-05T13:57:07.702Z,86.30
2017-12-05T13:59:35.975Z,85.60
2017-12-05T14:02:03.499Z,85.50
2017-12-05T14:04:31.002Z,85.50
2017-12-05T14:06:59.275Z,84.90
2017-12-05T14:09:27.566Z,85.20
2017-12-05T14:11:55.067Z,85.20
2017-12-05T14:14:22.587Z,85.10
2017-12-05T14:16:50.087Z,84.50
2017-12-05T14:19:17.610Z,84.30
2017-12-05T14:21:45.115Z,84.30
2017-12-05T14:24:12.639Z,83.70
2017-12-05T14:26:40.134Z,83.80
2017-12-05T14:29:07.631Z,83.40
2017-12-05T14:31:35.915Z,83.50
2017-12-05T14:34:03.419Z,83.50
2017-12-05T14:36:30.943Z,83.60
2017-12-05T14:38:58.443Z,83.80
2017-12-05T14:41:25.966Z,83.80
2017-12-05T14:43:53.473Z,84.20
2017-12-05T14:46:20.999Z,84.30
2017-12-05T14:48:48.499Z,84.50
2017-12-05T14:51:16.763Z,84.70
2017-12-05T14:53:44.464Z,84.60
2017-12-05T14:56:11.967Z,84.90
2017-12-05T14:58:39.504Z,85.30
2017-12-05T15:01:07.020Z,85.50
2017-12-05T15:03:35.311Z,86.00
2017-12-05T15:06:02.811Z,86.00
2017-12-05T15:08:30.336Z,86.20
2017-12-05T15:10:57.847Z,86.50
2017-12-05T15:13:25.351Z,86.80
2017-12-05T15:15:52.870Z,86.70
2017-12-05T15:18:20.371Z,86.90
2017-12-05T15:20:47.890Z,87.40
2017-12-05T15:23:15.403Z,87.30
2017-12-05T15:25:42.929Z,87.60
2017-12-05T15:28:11.191Z,87.90
2017-12-05T15:30:38.715Z,87.90
2017-12-05T15:33:06.220Z,88.30
2017-12-05T15:35:34.507Z,88.20
2017-12-05T15:38:02.007Z,88.10
2017-12-05T15:40:29.516Z,88.40
2017-12-05T15:42:57.807Z,88.90
2017-12-05T15:45:25.307Z,88.90
2017-12-05T15:47:52.842Z,88.90
2017-12-05T15:50:20.351Z,89.10
2017-12-05T15:52:48.647Z,89.30
2017-12-05T15:55:16.914Z,89.10
2017-12-05T15:57:45.204Z,89.20
2017-12-05T16:00:12.707Z,89.10
2017-12-05T16:02:40.231Z,88.90
2017-12-05T16:05:07.738Z,89.10
2017-12-05T16:07:35.248Z,89.30
2017-12-05T16:10:02.777Z,89.20
2017-12-05T16:12:31.047Z,89.20
2017-12-05T16:14:59.338Z,89.30
2017-12-05T16:17:27.606Z,89.10
2017-12-05T16:19:55.895Z,89.40
2017-12-05T16:22:24.163Z,89.30
2017-12-05T16:24:52.451Z,89.40
2017-12-05T16:27:20.718Z,89.50
2017-12-05T16:29:49.007Z,89.10
2017-12-05T16:32:17.270Z,89.40
2017-12-05T16:34:45.555Z,89.50
2017-12-05T16:37:13.831Z,90.40
2017-12-05T16:39:42.094Z,89.70
2017-12-05T16:42:10.386Z,90.10
2017-12-05T16:44:38.652Z,89.50
2017-12-05T16:47:06.951Z,89.50
2017-12-05T16:49:34.447Z,89.50
2017-12-05T16:52:01.980Z,89.40
2017-12-05T16:54:29.482Z,89.50
2017-12-05T16:56:57.003Z,89.60
2017-12-05T16:59:24.505Z,89.50
2017-12-05T17:01:52.040Z,89.40
2017-12-05T17:04:19.541Z,89.70
2017-12-05T17:06:47.818Z,89.60
2017-12-05T17:09:15.350Z,89.60
2017-12-05T17:11:42.851Z,89.70
2017-12-05T17:14:10.375Z,89.60
2017-12-05T17:16:37.879Z,89.70
2017-12-05T17:19:05.403Z,89.80
2017-12-05T17:21:33.667Z,90.00
2017-12-05T17:24:01.187Z,90.00
2017-12-05T17:26:28.687Z,90.00
2017-12-05T17:28:56.224Z,89.60
2017-12-05T17:31:23.727Z,89.70
2017-12-05T17:33:51.991Z,89.70
2017-12-05T17:36:20.286Z,89.80
2017-12-05T17:38:47.782Z,89.70
2017-12-05T17:41:15.302Z,89.70
2017-12-05T17:43:42.815Z,89.60
2017-12-05T17:46:10.340Z,90.60
2017-12-05T17:48:37.839Z,89.80
2017-12-05T17:51:05.362Z,89.50
2017-12-05T17:53:32.862Z,89.40
2017-12-05T17:56:00.387Z,89.60
2017-12-05T17:58:27.891Z,89.30
2017-12-05T18:00:56.158Z,89.30
2017-12-05T18:03:23.691Z,89.30
2017-12-05T18:05:51.195Z,89.40
2017-12-05T18:08:19.484Z,89.20
2017-12-05T18:10:46.984Z,89.10
2017-12-05T18:13:14.507Z,89.40
2017-12-05T18:15:42.011Z,89.30
2017-12-05T18:18:10.330Z,88.70
2017-12-05T18:20:37.831Z,89.30
2017-12-05T18:23:05.356Z,89.20
2017-12-05T18:25:32.864Z,89.10
2017-12-05T18:28:00.367Z,89.00
2017-12-05T18:30:27.891Z,89.10
2017-12-05T18:32:55.397Z,89.10
2017-12-05T18:35:22.927Z,88.90
2017-12-05T18:37:51.191Z,89.00
2017-12-05T18:40:18.711Z,89.00
2017-12-05T18:42:46.213Z,89.10
2017-12-05T18:45:14.506Z,89.10
2017-12-05T18:47:42.774Z,90.00
2017-12-05T18:50:11.063Z,89.10
2017-12-05T18:52:38.564Z,89.10
2017-12-05T18:55:06.063Z,88.60
2017-12-05T18:57:34.358Z,88.70
2017-12-05T19:00:01.863Z,88.70
2017-12-05T19:02:29.389Z,88.50
2017-12-05T19:04:56.899Z,88.70
2017-12-05T19:07:24.422Z,88.70
2017-12-05T19:09:51.920Z,88.80
2017-12-05T19:12:20.211Z,88.80
2017-12-05T19:14:48.478Z,88.60
2017-12-05T19:17:15.998Z,88.60
2017-12-05T19:19:43.507Z,88.40
2017-12-05T19:22:11.803Z,88.50
2017-12-05T19:24:39.304Z,88.40
2017-12-05T19:27:06.808Z,88.40
2017-12-05T19:29:35.099Z,88.60
2017-12-05T19:32:02.598Z,88.60
2017-12-05T19:34:30.127Z,88.60
2017-12-05T19:36:57.626Z,88.50
2017-12-05T19:39:25.147Z,88.40
2017-12-05T19:41:52.647Z,88.40
2017-12-05T19:44:20.166Z,88.70
2017-12-05T19:46:47.667Z,88.40
2017-12-05T19:49:15.183Z,88.60
2017-12-05T19:51:42.679Z,88.60
2017-12-05T19:54:10.178Z,88.50
2017-12-05T19:56:37.699Z,88.20
2017-12-05T19:59:05.199Z,88.30
2017-12-05T20:01:32.719Z,88.40
2017-12-05T20:04:00.983Z,88.60
2017-12-05T20:06:28.511Z,88.60
2017-12-05T20:08:56.020Z,88.60
2017-12-05T20:11:23.547Z,88.30
2017-12-05T20:13:51.050Z,87.70
2017-12-05T20:16:19.339Z,88.70
2017-12-05T20:18:46.847Z,88.70
2017-12-05T20:21:14.368Z,88.30
2017-12-05T20:23:41.899Z,88.30
2017-12-05T20:26:10.175Z,88.40
2017-12-05T20:28:38.471Z,88.10
2017-12-05T20:31:05.975Z,88.10
2017-12-05T20:33:33.498Z,87.90
2017-12-05T20:36:01.006Z,87.90
2017-12-05T20:38:28.539Z,88.00
2017-12-05T20:40:56.035Z,88.10
2017-12-05T20:43:24.332Z,89.10
2017-12-05T20:45:51.826Z,88.50
2017-12-05T20:48:19.331Z,88.00
2017-12-05T20:50:47.620Z,88.10
2017-12-05T20:53:15.887Z,88.40
2017-12-05T20:55:44.187Z,89.00
2017-12-05T20:58:11.688Z,89.00
2017-12-05T21:00:39.215Z,88.20
2017-12-05T21:03:06.727Z,88.00
2017-12-05T21:05:34.255Z,87.40
2017-12-05T21:08:01.759Z,87.60
2017-12-05T21:10:30.023Z,87.30
2017-12-05T21:12:58.315Z,87.40
2017-12-05T21:15:26.584Z,87.40
2017-12-05T21:17:54.875Z,87.10
2017-12-05T21:20:23.147Z,87.10
2017-12-05T21:22:51.435Z,87.10
2017-12-05T21:25:18.948Z,87.10
2017-12-05T21:27:47.974Z,87.10
2017-12-05T21:30:16.251Z,87.10
2017-12-05T21:32:44.539Z,86.60
2017-12-05T21:35:12.043Z,86.60
2017-12-05T21:37:39.548Z,86.80
2017-12-05T21:40:07.837Z,86.50
2017-12-05T21:42:35.346Z,86.40
2017-12-05T21:45:02.929Z,86.60
2017-12-05T21:47:30.392Z,86.80
2017-12-05T21:49:58.679Z,86.60
2017-12-05T21:52:26.943Z,86.40
2017-12-05T21:54:55.231Z,86.40
2017-12-05T21:57:23.496Z,86.40
2017-12-05T21:59:52.109Z,86.50
2017-12-05T22:02:19.631Z,86.50
2017-12-05T22:04:47.896Z,87.50
2017-12-05T22:07:15.423Z,86.80
2017-12-05T22:09:42.927Z,86.40
2017-12-05T22:12:11.226Z,86.20
2017-12-05T22:14:38.726Z,86.10
2017-12-05T22:17:06.267Z,86.40
2017-12-05T22:19:33.767Z,86.00
2017-12-05T22:22:01.289Z,86.30
2017-12-05T22:24:28.794Z,86.00
2017-12-05T22:26:57.089Z,86.40
2017-12-05T22:29:24.595Z,85.80
2017-12-05T22:31:52.094Z,87.20
2017-12-05T22:34:20.379Z,86.90
2017-12-05T22:36:48.643Z,86.80
2017-12-05T22:39:16.930Z,86.10
2017-12-05T22:41:45.203Z,85.70
2017-12-05T22:44:13.491Z,85.00
2017-12-05T22:46:40.992Z,85.00
2017-12-05T22:49:08.514Z,85.00
2017-12-05T22:51:36.006Z,84.60
2017-12-05T22:54:03.531Z,84.20
2017-12-05T22:56:31.039Z,84.70
2017-12-05T22:58:58.562Z,84.70
2017-12-05T23:01:26.063Z,85.00
2017-12-05T23:03:53.563Z,85.20
2017-12-05T23:06:21.087Z,85.40
2017-12-05T23:08:48.588Z,85.00
2017-12-05T23:11:16.110Z,85.40
2017-12-05T23:13:44.379Z,85.30
2017-12-05T23:16:11.912Z,85.20
2017-12-05T23:18:39.412Z,85.70
2017-12-05T23:21:07.699Z,85.90
2017-12-05T23:23:35.963Z,85.90
2017-12-05T23:26:04.230Z,86.00
2017-12-05T23:28:31.754Z,86.80
2017-12-05T23:30:59.267Z,86.10
2017-12-05T23:33:27.555Z,86.30
2017-12-05T23:35:55.061Z,86.30
2017-12-05T23:38:25.685Z,86.50
2017-12-05T23:40:53.249Z,86.20
2017-12-05T23:43:20.875Z,86.60
2017-12-05T23:45:48.375Z,86.50
2017-12-05T23:48:15.875Z,86.60
2017-12-05T23:50:43.395Z,86.50
2017-12-05T23:53:10.896Z,86.40
2017-12-05T23:55:38.418Z,86.40
2017-12-05T23:58:05.927Z,86.30
